createdAt,value
2018-09-10T00:01:33.667Z,2.33
2018-09-10T00:04:02.121Z,2.73
2018-09-10T00:06:30.599Z,2.40
2018-09-10T00:08:59.028Z,2.63
2018-09-10T00:11:27.492Z,2.80
2018-09-10T00:13:55.926Z,2.67
2018-09-10T00:16:24.363Z,2.33
2018-09-10T00:18:52.820Z,2.37
2018-09-10T00:21:21.246Z,2.40
2018-09-10T00:23:49.703Z,3.10
2018-09-10T00:26:18.161Z,2.60
2018-09-10T00:28:46.607Z,2.60
2018-09-10T00:31:15.074Z,2.50
2018-09-10T00:33:43.500Z,2.50
2018-09-10T00:36:11.962Z,2.77
2018-09-10T00:38:40.394Z,2.00
2018-09-10T00:41:08.818Z,2.70
2018-09-10T00:43:37.276Z,3.00
2018-09-10T00:46:05.713Z,2.43
2018-09-10T00:48:34.217Z,2.57
2018-09-10T00:51:02.701Z,2.57
2018-09-10T00:53:31.133Z,2.90
2018-09-10T00:55:59.558Z,2.90
2018-09-10T00:58:28.018Z,2.70
2018-09-10T01:00:56.478Z,2.93
2018-09-10T01:03:25.170Z,3.17
2018-09-10T01:05:53.598Z,2.90
2018-09-10T01:08:22.021Z,2.50
2018-09-10T01:10:50.452Z,2.33
2018-09-10T01:13:18.909Z,2.40
2018-09-10T01:15:47.338Z,3.03
2018-09-10T01:18:15.756Z,2.90
2018-09-10T01:20:44.489Z,2.70
2018-09-10T01:23:12.946Z,3.03
2018-09-10T01:25:41.382Z,2.40
2018-09-10T01:28:09.789Z,2.50
2018-09-10T01:30:38.212Z,2.90
2018-09-10T01:33:10.854Z,3.07
2018-09-10T01:35:39.279Z,2.60
2018-09-10T01:38:07.721Z,2.50
2018-09-10T01:40:36.426Z,3.20
2018-09-10T01:43:04.847Z,2.50
2018-09-10T01:45:33.293Z,2.57
2018-09-10T01:48:01.736Z,2.87
2018-09-10T01:50:30.171Z,2.77
2018-09-10T01:52:58.592Z,2.60
2018-09-10T01:55:27.012Z,2.73
2018-09-10T01:57:55.456Z,2.57
2018-09-10T02:00:23.888Z,2.50
2018-09-10T02:02:52.347Z,2.97
2018-09-10T02:05:20.809Z,2.37
2018-09-10T02:07:49.224Z,2.40
2018-09-10T02:10:17.671Z,2.50
2018-09-10T02:12:46.119Z,2.50
2018-09-10T02:15:14.592Z,2.63
2018-09-10T02:17:43.027Z,2.67
2018-09-10T02:20:11.508Z,2.70
2018-09-10T02:22:40.192Z,3.20
2018-09-10T02:25:08.684Z,2.77
2018-09-10T02:27:37.167Z,2.90
2018-09-10T02:30:06.152Z,2.83
2018-09-10T02:32:34.591Z,2.93
2018-09-10T02:35:03.052Z,2.93
2018-09-10T02:37:31.576Z,2.90
2018-09-10T02:40:00.113Z,3.13
2018-09-10T02:42:28.568Z,2.90
2018-09-10T02:44:57.004Z,2.67
2018-09-10T02:47:25.465Z,2.63
2018-09-10T02:49:54.008Z,3.00
2018-09-10T02:52:22.636Z,3.10
2018-09-10T02:54:51.080Z,2.60
2018-09-10T02:57:19.506Z,2.50
2018-09-10T02:59:47.946Z,2.83
2018-09-10T03:02:16.688Z,2.60
2018-09-10T03:04:45.618Z,2.60
2018-09-10T03:07:14.909Z,2.90
2018-09-10T03:09:43.370Z,3.20
2018-09-10T03:12:11.835Z,3.57
2018-09-10T03:14:40.340Z,2.90
2018-09-10T03:17:08.790Z,2.90
2018-09-10T03:19:37.227Z,2.93
2018-09-10T03:22:05.672Z,3.30
2018-09-10T03:24:34.179Z,3.00
2018-09-10T03:27:02.604Z,3.20
2018-09-10T03:29:31.075Z,3.67
2018-09-10T03:31:59.512Z,3.50
2018-09-10T03:34:28.252Z,3.00
2018-09-10T03:36:56.729Z,2.80
2018-09-10T03:39:25.172Z,2.93
2018-09-10T03:41:53.636Z,3.40
2018-09-10T03:44:22.354Z,3.27
2018-09-10T03:46:50.801Z,2.90
2018-09-10T03:49:19.236Z,3.47
2018-09-10T03:51:47.689Z,3.10
2018-09-10T03:54:16.149Z,3.43
2018-09-10T03:56:45.458Z,2.70
2018-09-10T03:59:14.124Z,3.10
2018-09-10T04:01:42.580Z,3.07
2018-09-10T04:04:11.041Z,3.50
2018-09-10T04:06:39.525Z,3.00
2018-09-10T04:09:08.663Z,2.70
2018-09-10T04:11:37.432Z,3.00
2018-09-10T04:14:05.903Z,2.60
2018-09-10T04:16:34.346Z,3.33
2018-09-10T04:19:02.869Z,3.10
2018-09-10T04:21:31.396Z,3.30
2018-09-10T04:23:59.807Z,2.83
2018-09-10T04:26:28.283Z,2.93
2018-09-10T04:28:56.714Z,3.20
2018-09-10T04:31:25.191Z,2.80
2018-09-10T04:33:53.624Z,3.50
2018-09-10T04:36:22.056Z,2.80
2018-09-10T04:38:50.508Z,3.20
2018-09-10T04:41:18.972Z,3.20
2018-09-10T04:43:47.752Z,3.00
2018-09-10T04:46:16.191Z,3.70
2018-09-10T04:48:44.947Z,3.03
2018-09-10T04:51:13.408Z,2.83
2018-09-10T04:53:41.850Z,3.53
2018-09-10T04:56:10.316Z,3.93
2018-09-10T04:58:38.755Z,3.90
2018-09-10T05:01:07.300Z,3.13
2018-09-10T05:03:35.899Z,3.50
2018-09-10T05:06:04.323Z,3.07
2018-09-10T05:08:32.789Z,3.13
2018-09-10T05:11:01.237Z,3.27
2018-09-10T05:13:29.668Z,2.50
2018-09-10T05:15:58.115Z,2.90
2018-09-10T05:18:26.551Z,2.63
2018-09-10T05:20:54.999Z,3.03
2018-09-10T05:23:23.424Z,3.93
2018-09-10T05:25:52.114Z,3.33
2018-09-10T05:28:20.629Z,2.77
2018-09-10T05:30:49.010Z,2.70
2018-09-10T05:33:17.464Z,2.80
2018-09-10T05:35:45.927Z,2.23
2018-09-10T05:38:14.350Z,2.90
2018-09-10T05:40:42.815Z,2.37
2018-09-10T05:43:11.276Z,3.20
2018-09-10T05:45:40.072Z,2.93
2018-09-10T05:48:08.513Z,3.10
2018-09-10T05:50:36.935Z,3.07
2018-09-10T05:53:05.393Z,2.47
2018-09-10T05:55:33.913Z,3.63
2018-09-10T05:58:02.315Z,2.60
2018-09-10T06:00:30.785Z,3.90
2018-09-10T06:02:59.233Z,3.13
2018-09-10T06:05:27.680Z,2.90
2018-09-10T06:07:56.112Z,2.90
2018-09-10T06:10:24.757Z,2.30
2018-09-10T06:12:53.541Z,3.20
2018-09-10T06:15:21.976Z,3.10
2018-09-10T06:17:50.728Z,2.57
2018-09-10T06:20:19.197Z,3.00
2018-09-10T06:22:47.657Z,2.83
2018-09-10T06:25:16.389Z,3.03
2018-09-10T06:27:44.851Z,3.37
2018-09-10T06:30:13.683Z,3.20
2018-09-10T06:32:42.096Z,2.73
2018-09-10T06:35:10.571Z,2.90
2018-09-10T06:37:39.000Z,3.23
2018-09-10T06:40:07.488Z,3.13
2018-09-10T06:42:35.932Z,3.00
2018-09-10T06:45:04.412Z,2.63
2018-09-10T06:47:32.857Z,3.00
2018-09-10T06:50:01.278Z,3.23
2018-09-10T06:52:29.719Z,2.70
2018-09-10T06:54:58.173Z,3.33
2018-09-10T06:57:26.620Z,2.80
2018-09-10T06:59:55.071Z,2.50
2018-09-10T07:02:23.518Z,2.80
2018-09-10T07:04:51.926Z,2.17
2018-09-10T07:07:20.376Z,2.60
2018-09-10T07:09:48.790Z,2.77
2018-09-10T07:12:17.243Z,3.27
2018-09-10T07:14:45.682Z,2.20
2018-09-10T07:17:14.119Z,2.67
2018-09-10T07:19:42.575Z,2.50
2018-09-10T07:22:11.334Z,2.60
2018-09-10T07:24:39.870Z,2.40
2018-09-10T07:27:08.350Z,2.03
2018-09-10T07:29:36.808Z,2.40
2018-09-10T07:32:05.324Z,2.50
2018-09-10T07:34:33.828Z,2.27
2018-09-10T07:37:02.431Z,2.43
2018-09-10T07:39:30.899Z,2.40
2018-09-10T07:41:59.385Z,2.93
2018-09-10T07:44:27.866Z,2.57
2018-09-10T07:46:56.386Z,2.17
2018-09-10T07:49:24.916Z,2.00
2018-09-10T07:51:53.401Z,2.10
2018-09-10T07:54:21.900Z,2.47
2018-09-10T07:56:50.394Z,2.17
2018-09-10T07:59:18.847Z,2.40
2018-09-10T08:01:47.354Z,2.20
2018-09-10T08:04:15.834Z,2.43
2018-09-10T08:06:44.302Z,2.33
2018-09-10T08:09:12.828Z,1.83
2018-09-10T08:11:41.297Z,1.90
2018-09-10T08:14:09.776Z,2.20
2018-09-10T08:16:38.357Z,1.70
2018-09-10T08:19:06.760Z,2.33
2018-09-10T08:21:35.263Z,1.93
2018-09-10T08:24:03.770Z,2.20
2018-09-10T08:26:32.269Z,2.30
2018-09-10T08:29:01.102Z,1.90
2018-09-10T08:31:29.612Z,2.20
2018-09-10T08:33:58.103Z,2.20
2018-09-10T08:36:26.602Z,2.20
2018-09-10T08:38:55.388Z,2.33
2018-09-10T08:41:23.877Z,1.87
2018-09-10T08:43:52.812Z,1.70
2018-09-10T08:46:21.322Z,1.77
2018-09-10T08:48:49.835Z,1.90
2018-09-10T08:51:18.316Z,1.70
2018-09-10T08:53:46.786Z,1.60
2018-09-10T08:56:15.590Z,1.67
2018-09-10T08:58:43.801Z,2.00
2018-09-10T09:01:12.254Z,1.70
2018-09-10T09:03:40.716Z,2.00
2018-09-10T09:06:09.221Z,2.07
2018-09-10T09:08:37.670Z,1.97
2018-09-10T09:11:06.156Z,2.13
2018-09-10T09:13:34.657Z,2.13
2018-09-10T09:16:03.150Z,2.30
2018-09-10T09:18:31.619Z,2.43
2018-09-10T09:21:00.127Z,1.80
2018-09-10T09:23:28.664Z,1.87
2018-09-10T09:25:57.205Z,1.90
2018-09-10T09:28:25.864Z,1.67
2018-09-10T09:30:54.342Z,1.90
2018-09-10T09:33:22.787Z,1.50
2018-09-10T09:35:56.698Z,1.30
2018-09-10T09:38:30.644Z,1.47
2018-09-10T09:41:04.314Z,1.40
2018-09-10T09:43:38.367Z,1.40
2018-09-10T09:46:08.950Z,1.30
2018-09-10T09:48:37.431Z,1.50
2018-09-10T09:51:06.025Z,1.80
2018-09-10T09:53:35.318Z,1.30
2018-09-10T09:56:03.822Z,1.67
2018-09-10T09:58:32.745Z,1.53
2018-09-10T10:01:06.559Z,1.70
2018-09-10T10:03:40.335Z,1.60
2018-09-10T10:06:08.790Z,1.60
2018-09-10T10:08:37.282Z,1.30
2018-09-10T10:11:05.860Z,1.23
2018-09-10T10:13:34.350Z,1.70
2018-09-10T10:16:02.847Z,1.20
2018-09-10T10:18:31.886Z,1.73
2018-09-10T10:21:00.379Z,1.40
2018-09-10T10:23:28.859Z,1.50
2018-09-10T10:25:57.348Z,1.30
2018-09-10T10:28:25.836Z,1.00
2018-09-10T10:30:54.310Z,1.20
2018-09-10T10:33:22.815Z,1.30
2018-09-10T10:35:51.323Z,1.20
2018-09-10T10:38:19.815Z,0.97
2018-09-10T10:40:48.258Z,1.17
2018-09-10T10:43:16.756Z,1.30
2018-09-10T10:45:45.214Z,1.33
2018-09-10T10:48:13.742Z,1.40
2018-09-10T10:50:42.212Z,1.53
2018-09-10T10:53:10.710Z,1.40
2018-09-10T10:55:39.175Z,1.23
2018-09-10T10:58:07.715Z,1.30
2018-09-10T11:00:36.468Z,1.40
2018-09-10T11:03:05.002Z,1.47
2018-09-10T11:05:33.497Z,1.40
2018-09-10T11:08:02.232Z,1.27
2018-09-10T11:10:30.730Z,1.30
2018-09-10T11:12:59.210Z,1.10
2018-09-10T11:15:27.682Z,1.70
2018-09-10T11:17:56.146Z,1.27
2018-09-10T11:20:24.634Z,1.40
2018-09-10T11:22:53.141Z,1.03
2018-09-10T11:25:21.911Z,1.63
2018-09-10T11:27:50.424Z,1.60
2018-09-10T11:30:18.889Z,1.37
2018-09-10T11:32:47.402Z,1.90
2018-09-10T11:35:15.895Z,1.40
2018-09-10T11:37:44.403Z,1.27
2018-09-10T11:40:12.950Z,1.33
2018-09-10T11:42:41.479Z,1.77
2018-09-10T11:45:09.983Z,1.23
2018-09-10T11:47:38.466Z,1.53
2018-09-10T11:50:06.986Z,1.50
2018-09-10T11:52:35.462Z,1.47
2018-09-10T11:55:03.958Z,2.00
2018-09-10T11:57:32.474Z,1.70
2018-09-10T12:00:00.992Z,1.20
2018-09-10T12:02:29.485Z,1.50
2018-09-10T12:04:58.296Z,1.70
2018-09-10T12:07:26.774Z,1.70
2018-09-10T12:09:55.237Z,1.33
2018-09-10T12:12:23.726Z,1.53
2018-09-10T12:14:52.268Z,1.63
2018-09-10T12:17:20.720Z,1.40
2018-09-10T12:19:49.309Z,1.20
2018-09-10T12:22:17.789Z,1.53
2018-09-10T12:24:46.504Z,1.60
2018-09-10T12:27:14.999Z,1.47
2018-09-10T12:29:43.574Z,1.47
2018-09-10T12:32:12.040Z,1.70
2018-09-10T12:34:40.501Z,1.23
2018-09-10T12:37:09.014Z,1.30
2018-09-10T12:39:37.529Z,1.43
2018-09-10T12:42:06.100Z,1.30
2018-09-10T12:44:34.566Z,1.27
2018-09-10T12:47:03.038Z,1.60
2018-09-10T12:49:31.547Z,1.30
2018-09-10T12:52:00.014Z,1.50
2018-09-10T12:54:28.494Z,1.47
2018-09-10T12:56:57.070Z,1.60
2018-09-10T12:59:25.732Z,1.47
2018-09-10T13:01:54.221Z,1.63
2018-09-10T13:04:22.754Z,1.53
2018-09-10T13:06:51.174Z,1.53
2018-09-10T13:09:19.619Z,1.50
2018-09-10T13:11:48.135Z,1.20
2018-09-10T13:14:17.054Z,1.40
2018-09-10T13:16:45.791Z,1.37
2018-09-10T13:19:14.299Z,1.57
2018-09-10T13:21:42.845Z,1.60
2018-09-10T13:24:11.316Z,1.20
2018-09-10T13:26:39.793Z,1.53
2018-09-10T13:29:08.303Z,1.27
2018-09-10T13:31:36.764Z,1.50
2018-09-10T13:34:05.286Z,1.30
2018-09-10T13:36:33.871Z,1.20
2018-09-10T13:39:02.374Z,1.20
2018-09-10T13:41:30.839Z,1.40
2018-09-10T13:43:59.283Z,1.30
2018-09-10T13:46:27.803Z,1.60
2018-09-10T13:48:56.266Z,1.30
2018-09-10T13:51:25.171Z,1.30
2018-09-10T13:53:53.956Z,1.43
2018-09-10T13:56:22.399Z,1.30
2018-09-10T13:58:51.034Z,1.40
2018-09-10T14:01:19.584Z,1.37
2018-09-10T14:03:48.068Z,1.30
2018-09-10T14:06:16.524Z,1.40
2018-09-10T14:08:44.990Z,1.30
2018-09-10T14:11:13.480Z,1.37
2018-09-10T14:13:41.958Z,1.60
2018-09-10T14:16:10.687Z,1.30
2018-09-10T14:18:39.143Z,1.67
2018-09-10T14:21:07.674Z,1.27
2018-09-10T14:23:36.155Z,1.50
2018-09-10T14:26:05.137Z,1.40
2018-09-10T14:28:33.750Z,1.70
2018-09-10T14:31:02.222Z,1.33
2018-09-10T14:33:30.703Z,1.50
2018-09-10T14:35:59.656Z,1.57
2018-09-10T14:38:28.139Z,1.40
2018-09-10T14:40:56.609Z,1.40
2018-09-10T14:43:25.080Z,1.27
2018-09-10T14:45:53.559Z,1.30
2018-09-10T14:48:22.356Z,1.80
2018-09-10T14:50:50.890Z,1.40
2018-09-10T14:53:19.368Z,1.50
2018-09-10T14:55:47.861Z,1.50
2018-09-10T14:58:16.920Z,1.33
2018-09-10T15:00:45.347Z,1.30
2018-09-10T15:03:14.124Z,1.23
2018-09-10T15:05:42.661Z,1.43
2018-09-10T15:08:11.098Z,0.90
2018-09-10T15:10:39.563Z,1.20
2018-09-10T15:13:08.077Z,1.43
2018-09-10T15:15:36.523Z,1.57
2018-09-10T15:18:05.002Z,1.40
2018-09-10T15:20:33.502Z,1.20
2018-09-10T15:23:02.028Z,1.33
2018-09-10T15:25:30.513Z,1.30
2018-09-10T15:27:59.004Z,1.20
2018-09-10T15:30:27.506Z,1.13
2018-09-10T15:32:55.986Z,1.10
2018-09-10T15:35:24.457Z,1.30
2018-09-10T15:37:52.926Z,1.27
2018-09-10T15:40:21.396Z,1.00
2018-09-10T15:42:49.894Z,1.33
2018-09-10T15:45:18.473Z,1.17
2018-09-10T15:47:46.892Z,1.33
2018-09-10T15:50:15.347Z,1.17
2018-09-10T15:52:43.814Z,0.93
2018-09-10T15:55:12.272Z,0.80
2018-09-10T15:57:40.736Z,0.60
2018-09-10T16:00:09.314Z,0.90
2018-09-10T16:02:37.751Z,0.80
2018-09-10T16:05:06.312Z,1.40
2018-09-10T16:07:34.795Z,1.00
2018-09-10T16:10:03.290Z,1.17
2018-09-10T16:12:31.767Z,1.27
2018-09-10T16:15:00.238Z,0.73
2018-09-10T16:17:28.709Z,1.00
2018-09-10T16:19:57.215Z,1.33
2018-09-10T16:22:25.770Z,1.07
2018-09-10T16:24:54.219Z,1.43
2018-09-10T16:27:23.021Z,0.87
2018-09-10T16:29:51.471Z,0.80
2018-09-10T16:32:19.939Z,0.90
2018-09-10T16:34:48.415Z,1.20
2018-09-10T16:37:16.884Z,1.90
2018-09-10T16:39:45.369Z,1.80
2018-09-10T16:42:13.814Z,1.30
2018-09-10T16:44:42.309Z,1.37
2018-09-10T16:47:10.746Z,1.50
2018-09-10T16:49:39.236Z,2.00
2018-09-10T16:52:07.738Z,1.57
2018-09-10T16:54:36.242Z,1.03
2018-09-10T16:57:04.746Z,1.20
2018-09-10T16:59:33.240Z,1.60
2018-09-10T17:02:01.716Z,1.13
2018-09-10T17:04:30.188Z,0.90
2018-09-10T17:06:58.665Z,1.50
2018-09-10T17:09:27.158Z,0.80
2018-09-10T17:11:55.697Z,0.80
2018-09-10T17:14:24.156Z,1.03
2018-09-10T17:16:52.603Z,0.93
2018-09-10T17:19:21.107Z,1.60
2018-09-10T17:21:49.582Z,1.40
2018-09-10T17:24:18.362Z,1.63
2018-09-10T17:26:46.851Z,1.47
2018-09-10T17:29:15.656Z,1.17
2018-09-10T17:31:44.151Z,1.13
2018-09-10T17:34:12.973Z,1.20
2018-09-10T17:36:41.465Z,1.23
2018-09-10T17:39:09.945Z,1.47
2018-09-10T17:41:38.410Z,1.50
2018-09-10T17:44:07.024Z,1.53
2018-09-10T17:46:35.478Z,1.30
2018-09-10T17:49:03.977Z,1.77
2018-09-10T17:51:32.449Z,1.70
2018-09-10T17:54:00.947Z,1.50
2018-09-10T17:59:20.312Z,1.20
2018-09-10T18:01:48.813Z,1.60
2018-09-10T18:04:17.311Z,1.20
2018-09-10T18:06:45.828Z,1.80
2018-09-10T18:09:14.329Z,1.27
2018-09-10T18:11:43.163Z,1.77
2018-09-10T18:14:11.952Z,1.40
2018-09-10T18:16:40.480Z,1.50
2018-09-10T18:19:08.988Z,1.80
2018-09-10T18:21:37.516Z,1.30
2018-09-10T18:24:06.195Z,1.60
2018-09-10T18:26:34.952Z,1.70
2018-09-10T18:29:03.484Z,1.50
2018-09-10T18:31:31.992Z,1.43
2018-09-10T18:34:00.563Z,1.50
2018-09-10T18:36:29.081Z,1.00
2018-09-10T18:38:57.602Z,1.47
2018-09-10T18:41:26.135Z,1.70
2018-09-10T18:43:54.641Z,1.50
2018-09-10T18:46:23.364Z,1.10
2018-09-10T18:48:51.913Z,1.60
2018-09-10T18:51:20.444Z,1.40
2018-09-10T18:53:48.944Z,2.27
2018-09-10T18:56:17.442Z,1.57
2018-09-10T18:58:45.979Z,2.00
2018-09-10T19:01:14.686Z,1.27
2018-09-10T19:03:43.020Z,1.63
2018-09-10T19:06:11.938Z,1.87
2018-09-10T19:08:40.489Z,2.10
2018-09-10T19:11:08.990Z,1.83
2018-09-10T19:13:37.548Z,1.73
2018-09-10T19:16:06.120Z,1.70
2018-09-10T19:18:37.683Z,1.90
2018-09-10T19:21:06.688Z,1.70
2018-09-10T19:23:35.972Z,2.50
2018-09-10T19:26:04.999Z,2.10
2018-09-10T19:28:33.510Z,2.00
2018-09-10T19:31:02.219Z,2.33
2018-09-10T19:33:31.128Z,2.10
2018-09-10T19:35:59.679Z,1.47
2018-09-10T19:38:28.193Z,2.00
2018-09-10T19:40:57.359Z,2.30
2018-09-10T19:43:25.881Z,2.70
2018-09-10T19:45:54.388Z,2.10
2018-09-10T19:48:23.180Z,2.40
2018-09-10T19:50:51.770Z,2.13
2018-09-10T19:53:20.244Z,1.67
2018-09-10T19:55:48.758Z,1.37
2018-09-10T19:58:17.292Z,1.50
2018-09-10T20:00:45.820Z,1.50
2018-09-10T20:03:14.330Z,1.73
2018-09-10T20:05:42.828Z,2.30
2018-09-10T20:08:11.676Z,1.70
2018-09-10T20:10:40.197Z,1.57
2018-09-10T20:13:08.680Z,2.37
2018-09-10T20:15:37.207Z,2.37
2018-09-10T20:18:05.805Z,1.40
2018-09-10T20:20:34.334Z,1.93
2018-09-10T20:23:03.204Z,2.17
2018-09-10T20:25:31.704Z,1.67
2018-09-10T20:28:00.199Z,1.97
2018-09-10T20:30:28.767Z,1.77
2018-09-10T20:32:57.240Z,1.30
2018-09-10T20:35:25.772Z,1.77
2018-09-10T20:37:54.788Z,1.73
2018-09-10T20:40:23.315Z,2.10
2018-09-10T20:42:51.856Z,2.30
2018-09-10T20:45:20.356Z,2.33
2018-09-10T20:47:48.886Z,1.87
2018-09-10T20:50:17.375Z,1.87
2018-09-10T20:52:45.904Z,1.97
2018-09-10T20:55:14.420Z,1.90
2018-09-10T20:57:43.168Z,2.20
2018-09-10T21:00:11.700Z,2.70
2018-09-10T21:02:40.215Z,2.27
2018-09-10T21:05:08.740Z,2.93
2018-09-10T21:07:37.271Z,2.40
2018-09-10T21:10:06.468Z,2.07
2018-09-10T21:12:35.003Z,2.10
2018-09-10T21:15:03.576Z,2.20
2018-09-10T21:17:32.066Z,2.30
2018-09-10T21:20:00.583Z,2.60
2018-09-10T21:22:29.355Z,1.90
2018-09-10T21:24:57.880Z,2.17
2018-09-10T21:27:26.404Z,1.70
2018-09-10T21:29:55.196Z,1.63
2018-09-10T21:32:23.719Z,2.23
2018-09-10T21:34:52.224Z,2.27
2018-09-10T21:37:20.727Z,2.10
2018-09-10T21:39:49.272Z,2.80
2018-09-10T21:42:17.778Z,1.70
2018-09-10T21:44:46.296Z,1.60
2018-09-10T21:47:15.121Z,2.77
2018-09-10T21:49:43.620Z,2.13
2018-09-10T21:52:12.121Z,3.13
2018-09-10T21:54:40.627Z,2.00
2018-09-10T21:57:09.151Z,1.93
2018-09-10T21:59:37.641Z,2.30
2018-09-10T22:02:06.184Z,2.57
2018-09-10T22:04:34.707Z,2.60
2018-09-10T22:07:03.200Z,1.43
2018-09-10T22:09:31.691Z,2.63
2018-09-10T22:12:02.189Z,2.10
2018-09-10T22:14:31.444Z,2.00
2018-09-10T22:17:00.148Z,2.20
2018-09-10T22:19:28.671Z,2.60
2018-09-10T22:21:57.393Z,2.33
2018-09-10T22:24:26.280Z,2.50
2018-09-10T22:26:54.803Z,2.90
2018-09-10T22:29:23.279Z,2.23
2018-09-10T22:31:52.062Z,2.57
2018-09-10T22:34:20.552Z,3.00
2018-09-10T22:36:49.072Z,2.70
2018-09-10T22:39:17.592Z,2.43
2018-09-10T22:41:46.201Z,2.03
2018-09-10T22:44:14.736Z,2.40
2018-09-10T22:46:43.267Z,2.10
2018-09-10T22:49:11.785Z,2.07
2018-09-10T22:51:40.307Z,2.17
2018-09-10T22:54:09.120Z,2.10
2018-09-10T22:56:37.980Z,2.03
2018-09-10T22:59:06.547Z,2.47
2018-09-10T23:01:35.112Z,2.20
2018-09-10T23:04:03.725Z,2.57
2018-09-10T23:06:32.234Z,1.93
2018-09-10T23:09:00.755Z,2.30
2018-09-10T23:11:29.260Z,2.53
2018-09-10T23:13:57.775Z,1.80
2018-09-10T23:16:26.344Z,1.70
2018-09-10T23:18:54.827Z,2.50
2018-09-10T23:21:23.308Z,2.53
2018-09-10T23:23:51.829Z,2.50
2018-09-10T23:26:20.383Z,2.30
2018-09-10T23:28:48.896Z,2.17
2018-09-10T23:31:17.392Z,2.40
2018-09-10T23:33:45.963Z,2.60
2018-09-10T23:36:14.467Z,2.10
2018-09-10T23:38:42.949Z,2.70
2018-09-10T23:41:11.484Z,2.63
2018-09-10T23:43:40.002Z,2.20
2018-09-10T23:46:08.520Z,1.70
2018-09-10T23:48:37.056Z,2.60
2018-09-10T23:51:05.593Z,2.10
2018-09-10T23:53:34.106Z,2.80
2018-09-10T23:56:02.663Z,1.70
2018-09-10T23:58:31.152Z,2.00
